Mission, South Dakota
Current Conditions -  °F | °C
As of 4:52 AM on Monday 26 Jan 2015 (Local Time) from KVTN Reporting Station
Clear Clear  
Wind Chill: 28°   Ceiling: Unl
Heat Index: 36°   Visibility: 10mi
Dew Point: 31°   Wind: 13mph
Humidity: 82%   Direction: 270°W
Pressure: 29.96"   Gusts: NA
Location:  43.31°N, 100.66°W
Report Text: KVTN 261152Z AUTO 27011KT 10SM CLR 02/M01 A2996 RMK AO2 SLP164 T00221006 10028 21011 53002
Loading
Personal Weather Stations






























Interactive Weather Map New forecast layout! Learn more

10-Day Weather Forecast

Advertisements
Track Severe Weather on mobile